Time;durP1;ratioP1;P1;durP2;ratioP2;P2;SDS_P1;SDS_P2;PMS_P1;PMS_P2;Temp;Humidity;BMP_temperature;BMP_pressure;BME280_temperature;BME280_humidity;BME280_pressure;Samples;Min_cycle;Max_cycle;Signal;HPM_P1;HPM_P2
2021/07/07 00:00:19;;;;;;;20.30;4.70;;;17.60;99.90;;;;;;5013887;28;20494;-91
2021/07/07 00:02:45;;;;;;;20.52;5.20;;;17.50;99.90;;;;;;5013322;28;20125;-92
2021/07/07 00:05:14;;;;;;;25.25;5.00;;;17.40;99.90;;;;;;5003359;28;20040;-90
2021/07/07 00:07:40;;;;;;;24.42;5.03;;;17.40;99.90;;;;;;5011374;28;20029;-90
2021/07/07 00:10:08;;;;;;;18.35;5.00;;;17.40;99.90;;;;;;4997833;28;20028;-91
2021/07/07 00:12:34;;;;;;;22.05;5.35;;;17.40;99.90;;;;;;5007503;28;20025;-91
2021/07/07 00:15:00;;;;;;;18.85;5.88;;;17.30;99.90;;;;;;5030362;28;20029;-90
2021/07/07 00:17:26;;;;;;;17.48;6.18;;;17.30;99.90;;;;;;5030437;28;20438;-90
2021/07/07 00:19:53;;;;;;;21.42;5.47;;;17.30;99.90;;;;;;5023488;28;20036;-92
2021/07/07 00:22:19;;;;;;;17.63;5.68;;;17.30;99.90;;;;;;5016024;28;20087;-90
2021/07/07 00:24:45;;;;;;;14.57;6.22;;;17.30;99.90;;;;;;5030534;28;20025;-90
2021/07/07 00:27:12;;;;;;;19.73;5.30;;;17.30;99.90;;;;;;5026932;28;20272;-90
2021/07/07 00:29:39;;;;;;;20.25;6.30;;;17.40;99.90;;;;;;5030276;28;20061;-89
2021/07/07 00:32:05;;;;;;;17.70;5.22;;;17.30;99.90;;;;;;5029801;28;20030;-89
2021/07/07 00:34:31;;;;;;;16.95;4.75;;;17.40;99.90;;;;;;5030555;28;20164;-90
2021/07/07 00:36:57;;;;;;;16.35;4.40;;;17.40;99.90;;;;;;5028730;28;20025;-90
2021/07/07 00:39:22;;;;;;;19.75;5.80;;;17.40;99.90;;;;;;5012401;28;20099;-89
2021/07/07 00:41:48;;;;;;;22.23;6.47;;;17.40;99.90;;;;;;5029993;28;20038;-90
2021/07/07 00:44:14;;;;;;;22.80;5.70;;;17.40;99.90;;;;;;5030110;28;20032;-90
2021/07/07 00:46:41;;;;;;;15.48;4.85;;;17.40;99.90;;;;;;5019577;28;20371;-90
2021/07/07 00:49:08;;;;;;;17.73;4.95;;;17.40;99.90;;;;;;5029776;28;20053;-90
2021/07/07 00:51:34;;;;;;;18.88;4.72;;;17.50;99.90;;;;;;5012623;28;20035;-90
2021/07/07 00:54:00;;;;;;;20.60;4.97;;;17.50;99.90;;;;;;5030394;28;20021;-90
2021/07/07 00:56:30;;;;;;;21.08;5.88;;;17.50;99.90;;;;;;5031094;28;20076;-89
2021/07/07 00:58:56;;;;;;;19.08;5.00;;;17.50;99.90;;;;;;5024368;28;20458;-90
2021/07/07 01:01:22;;;;;;;20.58;5.35;;;17.50;99.90;;;;;;5032088;28;20394;-89
2021/07/07 01:03:48;;;;;;;18.67;5.05;;;17.50;99.90;;;;;;5016379;28;20018;-89
2021/07/07 01:06:15;;;;;;;17.90;5.15;;;17.50;99.90;;;;;;5033973;28;20076;-90
2021/07/07 01:08:42;;;;;;;14.60;4.82;;;17.50;99.90;;;;;;5014805;28;20050;-89
2021/07/07 01:11:08;;;;;;;17.95;5.45;;;17.40;99.90;;;;;;5024096;28;20125;-90
2021/07/07 01:13:33;;;;;;;16.98;4.72;;;17.50;99.90;;;;;;5036774;28;20058;-88
2021/07/07 01:16:03;;;;;;;21.05;5.00;;;17.50;99.90;;;;;;5045441;28;20047;-89
2021/07/07 01:18:29;;;;;;;16.00;4.40;;;17.50;99.90;;;;;;5049066;28;20041;-89
2021/07/07 01:20:54;;;;;;;18.55;5.43;;;17.60;99.90;;;;;;5039580;28;20048;-88
2021/07/07 01:23:20;;;;;;;15.15;5.28;;;17.60;99.90;;;;;;5029390;28;20052;-89
2021/07/07 01:25:46;;;;;;;20.05;5.55;;;17.70;99.90;;;;;;5029724;28;20022;-87
2021/07/07 01:28:12;;;;;;;17.38;5.68;;;17.60;99.90;;;;;;5029566;28;20029;-87
2021/07/07 01:30:38;;;;;;;21.35;6.80;;;17.40;99.90;;;;;;5029550;28;20100;-87
2021/07/07 01:33:04;;;;;;;18.27;6.43;;;17.30;99.90;;;;;;5029498;28;20105;-88
2021/07/07 01:35:29;;;;;;;23.15;7.47;;;17.30;99.90;;;;;;5031056;28;20402;-88
2021/07/07 01:37:55;;;;;;;25.55;7.70;;;17.30;99.90;;;;;;5039583;28;20029;-87
2021/07/07 01:40:23;;;;;;;28.20;8.52;;;17.20;99.90;;;;;;5044603;28;20100;-89
2021/07/07 01:42:50;;;;;;;22.13;6.65;;;17.30;99.90;;;;;;5034622;28;20025;-88
2021/07/07 01:45:16;;;;;;;14.65;5.90;;;17.30;99.90;;;;;;5027140;28;20033;-87
2021/07/07 01:47:42;;;;;;;28.25;7.30;;;17.40;99.90;;;;;;5019694;28;20029;-88
2021/07/07 01:50:11;;;;;;;22.48;6.50;;;17.40;99.90;;;;;;5021953;28;20026;-88
2021/07/07 01:52:37;;;;;;;22.90;6.90;;;17.50;99.90;;;;;;5030815;28;20013;-88
2021/07/07 01:55:05;;;;;;;25.73;7.88;;;17.50;99.90;;;;;;5033146;28;20025;-88
2021/07/07 01:57:43;;;;;;;28.75;9.40;;;17.50;99.90;;;;;;5027602;28;20037;-88
2021/07/07 02:00:20;;;;;;;27.40;9.43;;;17.50;99.90;;;;;;5032531;28;20049;-88
2021/07/07 02:02:48;;;;;;;26.70;11.75;;;17.50;99.90;;;;;;5032437;28;20475;-88
2021/07/07 02:05:14;;;;;;;36.55;10.32;;;17.50;99.90;;;;;;5032567;28;20064;-88
2021/07/07 02:07:40;;;;;;;31.77;9.88;;;17.50;99.90;;;;;;5014752;28;20120;-89
2021/07/07 02:10:10;;;;;;;25.90;9.90;;;17.50;99.90;;;;;;5032533;28;20028;-88
2021/07/07 02:12:36;;;;;;;26.48;7.88;;;17.50;99.90;;;;;;5022192;28;20073;-89
2021/07/07 02:15:16;;;;;;;23.55;8.02;;;17.60;99.90;;;;;;5011406;28;20390;-88
2021/07/07 02:17:42;;;;;;;27.77;8.27;;;17.60;99.90;;;;;;5032509;28;20022;-89
2021/07/07 02:20:11;;;;;;;28.17;9.40;;;17.60;99.90;;;;;;5027279;28;20029;-89
2021/07/07 02:22:38;;;;;;;24.60;6.95;;;17.60;99.90;;;;;;5014713;28;20021;-88
2021/07/07 02:25:06;;;;;;;25.08;7.18;;;17.60;99.90;;;;;;5031926;28;20401;-88
2021/07/07 02:27:32;;;;;;;27.92;7.32;;;17.60;99.90;;;;;;5020206;28;20025;-92
2021/07/07 02:29:58;;;;;;;27.45;7.90;;;17.60;99.90;;;;;;5015086;28;20029;-88
2021/07/07 02:32:23;;;;;;;25.52;7.35;;;17.60;99.90;;;;;;5032691;28;20021;-88
2021/07/07 02:34:49;;;;;;;18.52;6.70;;;17.60;99.90;;;;;;5021323;28;20448;-88
2021/07/07 02:37:15;;;;;;;20.38;6.78;;;17.60;99.90;;;;;;5011962;28;20048;-88
2021/07/07 02:39:41;;;;;;;21.45;6.90;;;17.60;99.90;;;;;;5031956;28;20013;-90
2021/07/07 02:42:06;;;;;;;28.50;6.13;;;17.60;99.90;;;;;;5032120;28;20256;-88
2021/07/07 02:44:32;;;;;;;20.33;5.60;;;17.70;99.90;;;;;;5018172;28;20024;-88
2021/07/07 02:46:58;;;;;;;29.05;5.78;;;17.70;99.90;;;;;;5032059;28;20508;-90
2021/07/07 02:49:25;;;;;;;20.15;5.22;;;17.70;99.90;;;;;;5030121;28;20022;-91
2021/07/07 02:51:52;;;;;;;23.52;5.85;;;17.70;99.90;;;;;;5030819;28;20052;-89
2021/07/07 02:54:17;;;;;;;24.33;5.88;;;17.70;99.90;;;;;;5028844;28;20473;-88
2021/07/07 02:56:43;;;;;;;22.58;6.60;;;17.60;99.90;;;;;;5032324;28;20097;-89
2021/07/07 02:59:09;;;;;;;19.75;5.78;;;17.60;99.90;;;;;;5026276;28;20457;-88
2021/07/07 03:01:34;;;;;;;28.02;9.00;;;17.60;99.90;;;;;;5031983;28;20029;-88
2021/07/07 03:04:00;;;;;;;24.58;8.93;;;17.50;99.90;;;;;;5024777;28;20045;-88
2021/07/07 03:06:26;;;;;;;28.40;11.52;;;17.50;99.90;;;;;;5032137;28;20489;-89
2021/07/07 03:08:51;;;;;;;25.77;10.02;;;17.50;99.90;;;;;;5010434;28;20638;-88
2021/07/07 03:11:17;;;;;;;31.30;10.57;;;17.40;99.90;;;;;;5011554;28;20018;-88
2021/07/07 03:13:43;;;;;;;23.70;9.75;;;17.40;99.90;;;;;;5017015;28;20025;-88
2021/07/07 03:16:08;;;;;;;25.77;9.60;;;17.40;99.90;;;;;;5021810;28;20026;-88
2021/07/07 03:18:34;;;;;;;27.88;10.27;;;17.40;99.90;;;;;;5031580;28;20455;-89
2021/07/07 03:21:00;;;;;;;25.15;7.88;;;17.40;99.90;;;;;;5031292;28;20044;-88
2021/07/07 03:23:26;;;;;;;21.77;9.38;;;17.40;99.90;;;;;;5031657;28;20057;-89
2021/07/07 03:25:53;;;;;;;23.85;9.10;;;17.40;99.90;;;;;;5031960;28;20030;-88
2021/07/07 03:28:20;;;;;;;20.90;8.23;;;17.40;99.90;;;;;;5031836;28;20025;-88
2021/07/07 03:30:46;;;;;;;24.65;6.45;;;17.40;99.90;;;;;;5016341;28;20445;-88
2021/07/07 03:33:12;;;;;;;16.60;6.20;;;17.40;99.90;;;;;;5013520;28;20116;-88
2021/07/07 03:35:38;;;;;;;17.55;5.85;;;17.40;99.90;;;;;;5031450;28;20081;-88
2021/07/07 03:38:05;;;;;;;19.00;6.20;;;17.50;99.90;;;;;;5021933;28;20061;-88
2021/07/07 03:40:32;;;;;;;22.65;7.60;;;17.40;99.90;;;;;;5027572;28;20120;-89
2021/07/07 03:42:58;;;;;;;24.65;6.70;;;17.50;99.90;;;;;;5031345;28;20029;-89
2021/07/07 03:45:25;;;;;;;20.13;6.35;;;17.40;99.90;;;;;;5024080;28;20047;-88
2021/07/07 03:47:51;;;;;;;17.65;5.70;;;17.50;99.90;;;;;;5017947;28;20032;-88
2021/07/07 03:50:18;;;;;;;20.08;7.55;;;17.40;99.90;;;;;;5031137;28;20026;-89
2021/07/07 03:52:44;;;;;;;19.75;7.10;;;17.40;99.90;;;;;;5031450;28;20025;-88
2021/07/07 03:55:12;;;;;;;20.75;8.27;;;17.40;99.90;;;;;;5021051;28;20017;-89
2021/07/07 03:57:39;;;;;;;26.05;8.10;;;17.40;99.90;;;;;;5031140;28;20046;-88
2021/07/07 04:00:14;;;;;;;30.20;7.97;;;17.50;99.90;;;;;;5031209;28;20040;-89
2021/07/07 04:02:40;;;;;;;25.55;6.32;;;17.50;99.90;;;;;;5012810;28;20097;-88
2021/07/07 04:05:07;;;;;;;22.48;6.07;;;17.50;99.90;;;;;;5018284;28;20113;-88
2021/07/07 04:07:33;;;;;;;21.33;6.13;;;17.50;99.90;;;;;;5030504;28;20060;-88
2021/07/07 04:09:59;;;;;;;23.92;6.10;;;17.50;99.90;;;;;;5030901;28;20052;-88
2021/07/07 04:12:25;;;;;;;17.90;5.50;;;17.50;99.90;;;;;;5022344;28;20025;-89
2021/07/07 04:14:52;;;;;;;20.42;5.35;;;17.50;99.90;;;;;;5024924;28;20099;-89
2021/07/07 04:17:18;;;;;;;23.58;5.78;;;17.50;99.90;;;;;;5018107;28;20104;-88
2021/07/07 04:19:43;;;;;;;26.02;6.82;;;17.40;99.90;;;;;;5022794;28;20117;-89
2021/07/07 04:22:09;;;;;;;22.33;5.22;;;17.40;99.90;;;;;;5029008;28;20025;-88
2021/07/07 04:24:35;;;;;;;21.20;5.85;;;17.50;99.90;;;;;;5030072;28;20013;-88
2021/07/07 04:27:01;;;;;;;24.50;5.70;;;17.50;99.90;;;;;;5030014;28;20028;-89
2021/07/07 04:29:27;;;;;;;20.25;5.57;;;17.40;99.90;;;;;;5018037;28;20029;-89
2021/07/07 04:31:56;;;;;;;28.52;6.88;;;17.40;99.90;;;;;;5029831;28;20021;-88
2021/07/07 04:34:23;;;;;;;18.17;5.50;;;17.40;99.90;;;;;;5030247;28;20013;-89
2021/07/07 04:36:49;;;;;;;23.83;6.07;;;17.50;99.90;;;;;;5012155;28;20064;-88
2021/07/07 04:39:15;;;;;;;18.65;5.32;;;17.40;99.90;;;;;;5030018;28;20049;-88
2021/07/07 04:41:41;;;;;;;21.10;6.05;;;17.50;99.90;;;;;;5030281;28;20044;-88
2021/07/07 04:44:06;;;;;;;17.98;5.60;;;17.50;99.90;;;;;;5026364;28;20089;-89
2021/07/07 04:46:32;;;;;;;20.42;5.43;;;17.40;99.90;;;;;;5020413;28;20034;-88
2021/07/07 04:48:58;;;;;;;26.58;5.82;;;17.50;99.90;;;;;;5030425;28;20018;-89
2021/07/07 04:51:24;;;;;;;15.98;5.00;;;17.40;99.90;;;;;;5030247;28;20032;-89
2021/07/07 04:53:50;;;;;;;20.90;4.47;;;17.50;99.90;;;;;;5030042;28;20017;-88
2021/07/07 04:56:15;;;;;;;16.73;5.60;;;17.50;99.90;;;;;;5029653;28;20475;-88
2021/07/07 04:58:42;;;;;;;15.65;5.40;;;17.50;99.90;;;;;;5029591;28;20047;-90
2021/07/07 05:01:08;;;;;;;16.77;5.07;;;17.60;99.90;;;;;;5029410;28;20025;-88
2021/07/07 05:03:33;;;;;;;14.93;5.28;;;17.60;99.90;;;;;;5029699;28;20026;-89
2021/07/07 05:05:59;;;;;;;17.08;4.72;;;17.60;99.90;;;;;;5029683;28;20052;-88
2021/07/07 05:08:25;;;;;;;16.58;5.30;;;17.60;99.90;;;;;;5030144;28;20021;-88
2021/07/07 05:10:51;;;;;;;14.68;6.00;;;17.60;99.90;;;;;;5009103;28;20026;-89
2021/07/07 05:13:18;;;;;;;16.45;5.72;;;17.50;99.90;;;;;;5026216;28;20014;-87
2021/07/07 05:15:47;;;;;;;22.25;6.10;;;17.40;99.90;;;;;;5033711;28;20099;-87
2021/07/07 05:18:15;;;;;;;15.82;6.47;;;17.30;99.90;;;;;;5033755;28;20100;-88
2021/07/07 05:20:41;;;;;;;22.35;6.60;;;17.30;99.90;;;;;;5033475;28;20036;-88
2021/07/07 05:23:07;;;;;;;15.10;6.63;;;17.20;99.90;;;;;;5033951;28;20025;-88
2021/07/07 05:25:38;;;;;;;14.07;5.32;;;17.20;99.90;;;;;;5034422;28;20045;-88
2021/07/07 05:28:04;;;;;;;14.95;6.50;;;17.10;99.90;;;;;;5033739;28;20568;-88
2021/07/07 05:30:30;;;;;;;15.82;6.65;;;17.20;99.90;;;;;;5033987;28;20067;-88
2021/07/07 05:32:57;;;;;;;16.33;5.90;;;17.20;99.90;;;;;;5022250;28;20029;-88
2021/07/07 05:35:23;;;;;;;17.48;5.60;;;17.20;99.90;;;;;;5033431;28;20017;-89
2021/07/07 05:37:49;;;;;;;12.52;5.28;;;17.20;99.90;;;;;;5020312;28;20063;-88
2021/07/07 05:40:17;;;;;;;17.75;5.97;;;17.20;99.90;;;;;;5033526;28;20130;-88
2021/07/07 05:42:45;;;;;;;15.15;5.32;;;17.20;99.90;;;;;;5033342;28;20017;-88
2021/07/07 05:45:11;;;;;;;13.00;4.97;;;17.20;99.90;;;;;;5033438;28;20276;-87
2021/07/07 05:47:37;;;;;;;18.42;5.60;;;17.30;99.90;;;;;;5019283;28;20032;-86
2021/07/07 05:50:03;;;;;;;10.75;4.93;;;17.30;99.90;;;;;;5033066;28;20021;-88
2021/07/07 05:52:29;;;;;;;9.27;4.20;;;17.40;99.90;;;;;;5023060;28;21213;-89
2021/07/07 05:54:55;;;;;;;15.13;5.07;;;17.30;99.90;;;;;;5030786;28;20032;-89
2021/07/07 05:57:24;;;;;;;8.23;4.00;;;17.40;99.90;;;;;;5012494;28;20040;-88
2021/07/07 05:59:51;;;;;;;10.75;4.38;;;17.50;99.90;;;;;;5027271;28;20029;-88
2021/07/07 06:02:17;;;;;;;8.48;2.90;;;17.60;99.90;;;;;;5023236;28;20026;-89
2021/07/07 06:04:43;;;;;;;11.02;3.22;;;17.70;99.90;;;;;;5031298;28;20453;-89
2021/07/07 06:07:08;;;;;;;11.07;2.88;;;17.70;99.90;;;;;;5026804;28;20029;-89
2021/07/07 06:09:34;;;;;;;8.85;2.83;;;17.80;99.90;;;;;;5028146;28;20093;-88
2021/07/07 06:12:00;;;;;;;8.13;2.60;;;17.80;99.90;;;;;;5009388;28;20033;-88
2021/07/07 06:14:26;;;;;;;6.00;2.28;;;17.80;99.90;;;;;;5032805;28;20025;-89
2021/07/07 06:16:51;;;;;;;7.18;2.78;;;17.90;99.90;;;;;;5028561;28;20021;-89
2021/07/07 06:19:17;;;;;;;6.75;2.45;;;17.90;99.90;;;;;;5032525;28;20121;-90
2021/07/07 06:21:43;;;;;;;11.95;2.22;;;17.90;99.90;;;;;;5018180;28;20034;-90
2021/07/07 06:24:10;;;;;;;6.90;2.20;;;18.00;99.90;;;;;;5032311;28;20478;-89
2021/07/07 06:26:35;;;;;;;9.90;2.38;;;17.90;99.90;;;;;;5031981;28;20099;-89
2021/07/07 06:29:05;;;;;;;7.95;2.05;;;17.90;99.90;;;;;;5026570;28;20438;-88
2021/07/07 06:31:33;;;;;;;8.30;2.55;;;18.00;99.90;;;;;;5006997;28;20120;-88
2021/07/07 06:33:59;;;;;;;10.23;2.30;;;18.00;99.90;;;;;;5018097;28;20094;-88
2021/07/07 06:36:25;;;;;;;6.07;1.90;;;18.00;99.90;;;;;;5032058;28;20481;-89
2021/07/07 06:38:51;;;;;;;6.82;1.60;;;17.90;99.90;;;;;;5027268;28;20033;-89
2021/07/07 06:41:16;;;;;;;6.43;1.95;;;17.90;99.90;;;;;;5032321;28;20033;-88
2021/07/07 06:43:42;;;;;;;9.23;2.17;;;18.00;99.90;;;;;;5025182;28;20033;-89
2021/07/07 06:46:08;;;;;;;8.95;1.70;;;17.80;99.90;;;;;;5028447;28;20029;-81
2021/07/07 06:48:33;;;;;;;6.43;1.77;;;17.80;99.90;;;;;;5036906;28;20493;-81
2021/07/07 06:50:59;;;;;;;5.93;1.58;;;17.80;99.90;;;;;;5016443;28;20018;-82
2021/07/07 06:53:25;;;;;;;6.18;1.70;;;17.80;99.90;;;;;;5014988;28;20363;-81
2021/07/07 06:55:51;;;;;;;4.82;1.60;;;17.80;99.90;;;;;;5017169;28;20026;-81
2021/07/07 06:58:18;;;;;;;8.68;2.17;;;17.80;99.90;;;;;;5012912;28;20046;-82
2021/07/07 07:00:43;;;;;;;9.80;1.90;;;17.80;99.90;;;;;;5012972;28;20033;-81
2021/07/07 07:03:09;;;;;;;5.25;1.77;;;17.90;99.90;;;;;;5012652;28;20108;-81
2021/07/07 07:05:35;;;;;;;10.65;1.60;;;17.90;99.90;;;;;;5012190;28;20026;-81
2021/07/07 07:08:02;;;;;;;5.90;1.60;;;18.00;99.90;;;;;;5013176;28;20511;-81
2021/07/07 07:10:28;;;;;;;5.95;1.50;;;18.00;99.90;;;;;;5012081;28;20042;-81
2021/07/07 07:12:54;;;;;;;8.35;1.80;;;18.10;99.90;;;;;;5011966;28;20489;-81
2021/07/07 07:15:19;;;;;;;10.45;2.25;;;18.20;99.90;;;;;;5029707;28;20017;-81
2021/07/07 07:17:45;;;;;;;8.52;1.90;;;18.20;99.90;;;;;;5030777;28;20060;-81
2021/07/07 07:20:14;;;;;;;7.50;1.63;;;18.30;99.90;;;;;;5030628;28;20041;-81
2021/07/07 07:22:40;;;;;;;6.40;1.40;;;18.20;99.90;;;;;;5030764;28;20021;-81
2021/07/07 07:25:08;;;;;;;8.00;1.85;;;18.30;99.90;;;;;;5030496;28;20040;-81
2021/07/07 07:27:34;;;;;;;8.20;1.58;;;18.40;99.90;;;;;;5030455;28;20028;-81
2021/07/07 07:30:00;;;;;;;5.00;1.40;;;18.50;99.90;;;;;;5030485;28;20044;-81
2021/07/07 07:32:26;;;;;;;4.90;1.52;;;18.50;99.90;;;;;;5030476;28;20389;-82
2021/07/07 07:34:51;;;;;;;8.45;1.50;;;18.60;99.90;;;;;;5030171;28;20021;-81
2021/07/07 07:37:25;;;;;;;4.90;1.55;;;18.70;99.90;;;;;;5029432;28;21052;-81
2021/07/07 07:39:53;;;;;;;4.78;1.30;;;18.80;99.90;;;;;;5030103;28;20438;-81
2021/07/07 07:42:20;;;;;;;6.97;2.35;;;18.60;99.90;;;;;;5029794;28;20476;-81
2021/07/07 07:44:46;;;;;;;5.55;2.00;;;18.50;99.90;;;;;;5030044;28;20019;-81
2021/07/07 07:47:14;;;;;;;4.82;1.60;;;18.50;99.90;;;;;;5029996;28;20037;-81
2021/07/07 07:49:39;;;;;;;12.07;2.08;;;18.50;99.90;;;;;;5029447;28;20022;-81
2021/07/07 07:52:06;;;;;;;4.28;1.45;;;18.70;99.90;;;;;;5030187;28;20540;-81
2021/07/07 07:54:33;;;;;;;5.40;1.55;;;18.90;99.90;;;;;;5029691;28;20525;-81
2021/07/07 07:57:00;;;;;;;8.73;1.83;;;19.10;99.90;;;;;;5029863;28;20116;-82
2021/07/07 07:59:26;;;;;;;5.45;1.27;;;19.30;99.90;;;;;;5029453;28;20041;-81
2021/07/07 08:01:52;;;;;;;5.32;1.38;;;19.50;99.90;;;;;;5029730;28;20075;-82
2021/07/07 08:04:19;;;;;;;5.53;1.45;;;19.50;99.90;;;;;;5029479;28;20053;-81
2021/07/07 08:06:45;;;;;;;3.38;1.40;;;19.20;99.90;;;;;;5029577;28;20425;-81
2021/07/07 08:09:11;;;;;;;10.07;1.80;;;19.00;99.90;;;;;;5029649;28;20025;-81
2021/07/07 08:11:37;;;;;;;5.53;1.63;;;18.90;99.90;;;;;;5027295;28;20144;-80
2021/07/07 08:14:04;;;;;;;5.10;1.70;;;18.80;99.90;;;;;;5017919;28;20025;-81
2021/07/07 08:16:30;;;;;;;5.57;1.85;;;18.90;99.90;;;;;;5030066;28;20033;-80
2021/07/07 08:18:56;;;;;;;6.45;1.33;;;19.10;99.90;;;;;;5015011;28;20399;-80
2021/07/07 08:21:21;;;;;;;6.13;1.50;;;19.50;99.90;;;;;;5029325;28;20033;-80
2021/07/07 08:23:48;;;;;;;8.35;2.00;;;19.70;99.90;;;;;;5029195;28;20436;-81
2021/07/07 08:26:14;;;;;;;5.70;1.45;;;19.50;99.90;;;;;;5018971;28;20018;-80
2021/07/07 08:28:40;;;;;;;5.40;1.77;;;19.40;99.90;;;;;;5029277;28;20498;-80
2021/07/07 08:31:06;;;;;;;4.97;1.58;;;19.40;99.90;;;;;;5029275;28;20029;-80
2021/07/07 08:33:32;;;;;;;5.72;1.40;;;19.20;99.90;;;;;;5029171;28;20119;-80
2021/07/07 08:35:58;;;;;;;7.57;1.40;;;19.30;99.90;;;;;;5030225;28;20095;-80
2021/07/07 08:38:23;;;;;;;5.78;1.30;;;19.40;99.90;;;;;;5021808;28;20049;-81
2021/07/07 08:40:49;;;;;;;8.88;1.88;;;19.60;99.90;;;;;;5029133;28;20087;-81
2021/07/07 08:43:15;;;;;;;8.43;1.23;;;20.00;99.90;;;;;;5029218;28;20083;-81
2021/07/07 08:45:41;;;;;;;6.85;1.58;;;20.10;99.90;;;;;;5028934;28;20037;-81
2021/07/07 08:48:06;;;;;;;7.07;1.35;;;20.10;99.90;;;;;;5028895;28;20025;-80
2021/07/07 08:50:34;;;;;;;3.30;1.17;;;19.90;99.90;;;;;;5028226;28;20104;-81
2021/07/07 08:53:02;;;;;;;4.85;1.40;;;19.90;99.90;;;;;;5016312;28;20044;-81
2021/07/07 08:55:29;;;;;;;4.57;1.00;;;19.90;99.90;;;;;;5028982;28;20080;-78
2021/07/07 08:57:56;;;;;;;6.43;1.67;;;19.90;99.90;;;;;;5030593;28;20597;-79
2021/07/07 09:00:36;;;;;;;6.63;1.30;;;19.90;99.90;;;;;;5030013;28;20026;-79
2021/07/07 09:03:04;;;;;;;6.85;1.00;;;19.90;99.90;;;;;;5025014;28;20537;-80
2021/07/07 09:05:31;;;;;;;3.95;1.20;;;20.10;99.90;;;;;;5021577;28;20080;-79
2021/07/07 09:08:07;;;;;;;3.58;1.27;;;20.40;99.90;;;;;;5027961;28;20026;-79
2021/07/07 09:10:33;;;;;;;4.53;1.30;;;20.60;99.90;;;;;;5017558;28;20057;-79
2021/07/07 09:13:13;;;;;;;3.75;1.25;;;20.60;99.90;;;;;;5023390;28;20029;-78
2021/07/07 09:15:39;;;;;;;7.47;1.65;;;20.30;99.90;;;;;;5025595;28;20097;-79
2021/07/07 09:18:05;;;;;;;4.68;1.10;;;20.00;99.90;;;;;;5028971;28;20500;-76
2021/07/07 09:20:40;;;;;;;10.18;1.60;;;19.60;99.90;;;;;;5013437;28;20033;-78
2021/07/07 09:23:26;;;;;;;8.45;1.65;;;19.40;99.90;;;;;;5013348;28;20109;-77
2021/07/07 09:25:58;;;;;;;6.03;1.40;;;19.60;99.90;;;;;;5016215;28;20224;-74
2021/07/07 09:28:35;;;;;;;2.97;0.95;;;20.10;99.90;;;;;;5013900;28;20037;-77
2021/07/07 09:31:05;;;;;;;3.63;1.20;;;20.20;99.90;;;;;;5015866;28;20514;-76
2021/07/07 09:33:42;;;;;;;5.78;1.17;;;20.30;99.90;;;;;;5011383;28;20034;-77
2021/07/07 09:36:25;;;;;;;4.68;1.10;;;20.30;99.90;;;;;;5026877;28;20022;-76
2021/07/07 09:38:52;;;;;;;5.28;1.10;;;20.40;99.90;;;;;;5024434;28;20063;-77
2021/07/07 09:41:19;;;;;;;4.35;1.20;;;20.50;99.90;;;;;;5026794;28;20068;-76
2021/07/07 09:43:53;;;;;;;6.47;0.90;;;20.90;99.90;;;;;;5025928;28;20114;-75
2021/07/07 09:46:20;;;;;;;4.43;0.87;;;20.70;99.90;;;;;;5027577;28;20025;-76
2021/07/07 09:48:47;;;;;;;2.90;0.80;;;20.70;99.90;;;;;;5014759;28;20812;-76
2021/07/07 09:51:13;;;;;;;5.00;1.00;;;20.50;99.90;;;;;;5009704;28;20045;-77
2021/07/07 09:53:39;;;;;;;3.80;0.68;;;20.40;99.90;;;;;;5009394;28;20506;-76
2021/07/07 09:56:05;;;;;;;3.95;0.82;;;20.50;99.90;;;;;;5000287;28;20097;-77
2021/07/07 09:58:31;;;;;;;4.93;0.90;;;20.70;99.90;;;;;;5009192;28;20056;-75
2021/07/07 10:00:57;;;;;;;3.78;0.90;;;20.80;99.90;;;;;;5011952;28;20506;-75
2021/07/07 10:03:23;;;;;;;4.45;0.98;;;20.50;99.90;;;;;;5013027;28;20056;-76
2021/07/07 10:05:51;;;;;;;3.60;1.13;;;20.40;99.90;;;;;;4995642;28;20485;-75
2021/07/07 10:08:19;;;;;;;4.82;1.00;;;20.30;99.90;;;;;;5013285;28;20025;-75
2021/07/07 10:10:45;;;;;;;4.63;0.88;;;20.50;99.90;;;;;;5012069;28;20101;-75
2021/07/07 10:13:12;;;;;;;6.38;1.33;;;20.80;99.90;;;;;;5006747;28;20018;-76
2021/07/07 10:15:38;;;;;;;4.82;0.77;;;21.10;99.90;;;;;;5031982;28;20040;-76
2021/07/07 10:18:06;;;;;;;9.65;1.35;;;21.20;99.90;;;;;;5018119;28;20109;-76
2021/07/07 10:20:32;;;;;;;3.95;0.80;;;21.40;99.90;;;;;;5031693;28;20048;-77
2021/07/07 10:23:01;;;;;;;4.15;0.85;;;21.30;99.90;;;;;;5031886;28;20026;-76
2021/07/07 10:25:31;;;;;;;5.13;0.85;;;21.10;99.90;;;;;;5026844;28;20076;-76
2021/07/07 10:28:01;;;;;;;5.10;1.00;;;21.00;99.90;;;;;;5023104;28;20030;-75
2021/07/07 10:30:59;;;;;;;6.57;1.27;;;20.80;99.90;;;;;;5031490;28;20002;-75
2021/07/07 10:33:28;;;;;;;3.85;0.68;;;21.10;99.90;;;;;;5031559;28;20029;-76
2021/07/07 10:36:15;;;;;;;5.20;0.90;;;21.30;99.90;;;;;;5031508;28;20028;-76
2021/07/07 10:39:05;;;;;;;5.85;0.88;;;21.50;99.90;;;;;;5023480;28;20112;-77
2021/07/07 10:41:50;;;;;;;5.78;0.85;;;21.80;99.90;;;;;;5013518;28;20042;-78
2021/07/07 10:44:22;;;;;;;4.90;0.88;;;22.00;99.90;;;;;;5025560;28;20017;-78
2021/07/07 10:46:50;;;;;;;1.98;0.80;;;21.80;99.90;;;;;;4995375;28;20068;-79
2021/07/07 10:49:25;;;;;;;4.60;0.95;;;22.00;99.90;;;;;;5023384;28;20025;-78
2021/07/07 10:51:53;;;;;;;3.83;0.70;;;22.40;99.90;;;;;;5011081;28;20014;-80
2021/07/07 10:54:22;;;;;;;3.22;0.70;;;22.50;99.90;;;;;;5019096;28;20040;-82
2021/07/07 10:56:49;;;;;;;1.55;0.55;;;22.50;99.90;;;;;;5009954;28;20120;-82
2021/07/07 10:59:34;;;;;;;6.60;1.02;;;22.50;99.90;;;;;;5010978;28;20402;-83
2021/07/07 11:02:21;;;;;;;5.50;0.80;;;22.30;99.90;;;;;;5011288;28;20072;-82
2021/07/07 11:04:50;;;;;;;5.63;0.90;;;22.20;99.90;;;;;;5010921;28;20045;-81
2021/07/07 11:07:38;;;;;;;5.72;0.82;;;22.50;99.70;;;;;;5012577;28;20029;-82
2021/07/07 11:10:18;;;;;;;9.88;2.30;;;22.20;99.90;;;;;;5030733;28;20409;-81
2021/07/07 11:12:44;;;;;;;5.38;1.33;;;22.00;99.90;;;;;;5030427;28;20013;-81
2021/07/07 11:15:22;;;;;;;9.25;2.05;;;22.10;99.90;;;;;;5020475;28;20040;-81
2021/07/07 11:17:50;;;;;;;5.47;1.00;;;22.10;99.90;;;;;;5010644;28;20460;-81
2021/07/07 11:20:18;;;;;;;3.63;0.93;;;21.70;99.90;;;;;;5010738;28;20140;-81
2021/07/07 11:22:48;;;;;;;5.40;0.82;;;21.70;99.90;;;;;;5010509;28;20030;-81
2021/07/07 11:25:15;;;;;;;4.35;1.50;;;21.70;99.90;;;;;;5011200;28;20422;-81
2021/07/07 11:27:44;;;;;;;4.00;1.15;;;21.40;99.90;;;;;;5010734;28;20034;-81
2021/07/07 11:30:14;;;;;;;5.05;1.08;;;21.40;99.90;;;;;;5018884;28;20025;-82
2021/07/07 11:32:45;;;;;;;5.60;1.00;;;21.60;99.90;;;;;;5030445;28;20030;-81
2021/07/07 11:35:14;;;;;;;3.00;0.80;;;21.60;99.90;;;;;;5030585;28;20172;-81
2021/07/07 11:37:40;;;;;;;4.85;1.10;;;21.70;99.80;;;;;;5030378;28;20064;-81
2021/07/07 11:40:19;;;;;;;3.60;0.93;;;21.70;99.90;;;;;;5028283;28;20024;-81
2021/07/07 11:43:02;;;;;;;4.97;1.20;;;21.80;99.90;;;;;;5029995;28;20037;-81
2021/07/07 11:45:28;;;;;;;3.73;1.00;;;21.60;99.90;;;;;;5029910;28;20028;-81
2021/07/07 11:48:03;;;;;;;3.72;1.00;;;21.30;99.90;;;;;;5029899;28;20026;-81
2021/07/07 11:50:29;;;;;;;6.05;0.90;;;21.40;99.90;;;;;;5029969;28;20575;-81
2021/07/07 11:52:57;;;;;;;4.25;1.20;;;21.50;99.90;;;;;;5021026;28;20029;-81
2021/07/07 11:55:41;;;;;;;6.75;1.40;;;21.70;99.80;;;;;;5016277;28;20025;-81
2021/07/07 11:58:09;;;;;;;3.63;0.80;;;21.60;99.90;;;;;;5030107;28;20465;-82
2021/07/07 12:00:39;;;;;;;3.38;0.90;;;21.80;99.90;;;;;;5030075;28;20037;-81
2021/07/07 12:03:05;;;;;;;2.72;0.88;;;21.70;99.90;;;;;;5029945;28;20210;-81
2021/07/07 12:05:31;;;;;;;4.75;0.93;;;21.40;99.90;;;;;;5029761;28;20185;-80
2021/07/07 12:08:17;;;;;;;4.80;1.08;;;21.40;99.90;;;;;;5029845;28;20173;-81
2021/07/07 12:10:43;;;;;;;6.00;0.90;;;21.40;99.90;;;;;;5029742;28;20297;-81
2021/07/07 12:13:31;;;;;;;2.42;0.60;;;21.60;99.90;;;;;;5029818;28;20496;-81
2021/07/07 12:16:19;;;;;;;5.28;1.10;;;21.50;99.90;;;;;;5029208;28;20052;-81
2021/07/07 12:18:49;;;;;;;5.35;0.80;;;21.40;99.90;;;;;;5029803;28;20025;-81
2021/07/07 12:21:41;;;;;;;4.53;0.70;;;21.60;99.90;;;;;;5029406;28;20030;-81
2021/07/07 12:24:11;;;;;;;4.95;0.98;;;21.90;99.90;;;;;;5028617;28;20017;-81
2021/07/07 12:26:41;;;;;;;6.15;1.10;;;21.90;99.20;;;;;;5029621;28;20453;-81
2021/07/07 12:29:15;;;;;;;6.65;0.90;;;21.80;99.90;;;;;;5029437;28;20120;-82
2021/07/07 12:31:42;;;;;;;5.47;1.20;;;22.10;99.90;;;;;;5029093;28;20489;-82
2021/07/07 12:34:09;;;;;;;3.92;0.98;;;22.20;99.40;;;;;;5029203;28;20026;-81
2021/07/07 12:36:37;;;;;;;3.67;0.75;;;22.10;99.90;;;;;;5029674;28;20017;-82
2021/07/07 12:39:31;;;;;;;4.13;0.75;;;21.80;99.90;;;;;;5029011;28;20177;-81
2021/07/07 12:42:09;;;;;;;3.72;1.00;;;21.40;99.90;;;;;;5026219;28;20056;-79
2021/07/07 12:44:38;;;;;;;4.75;1.13;;;21.10;99.90;;;;;;5028953;28;20021;-79